createdAt,value
2018-12-14T11:07:15.653Z,12.33
2018-12-14T11:09:44.020Z,11.07
2018-12-14T11:12:12.448Z,10.00
2018-12-14T11:14:40.850Z,9.63
2018-12-14T11:17:09.164Z,8.97
2018-12-14T11:19:37.593Z,9.87
2018-12-14T11:22:05.940Z,10.63
2018-12-14T11:24:34.811Z,10.87
2018-12-14T11:27:03.923Z,11.17
2018-12-14T11:29:32.611Z,12.20
2018-12-14T11:32:01.073Z,11.10
2018-12-14T11:34:29.845Z,12.40
2018-12-14T11:36:58.435Z,12.57
2018-12-14T11:39:26.834Z,13.93
2018-12-14T11:41:55.352Z,12.40
2018-12-14T11:44:23.734Z,10.97
2018-12-14T11:46:52.074Z,12.77
2018-12-14T11:49:20.592Z,13.03
2018-12-14T11:51:49.022Z,14.73
2018-12-14T11:54:17.542Z,14.30
2018-12-14T11:56:46.446Z,12.00
2018-12-14T11:59:14.918Z,12.93
2018-12-14T12:01:43.275Z,15.37
2018-12-14T12:04:12.704Z,14.40
2018-12-14T12:06:41.016Z,17.27
2018-12-14T12:09:11.354Z,15.30
2018-12-14T12:11:39.764Z,17.27
2018-12-14T12:14:08.082Z,18.87
2018-12-14T12:16:36.438Z,15.50
2018-12-14T12:19:04.934Z,15.37
2018-12-14T12:21:33.682Z,18.87
2018-12-14T12:24:02.035Z,15.77
2018-12-14T12:26:30.367Z,15.23
2018-12-14T12:28:58.731Z,15.87
2018-12-14T12:31:27.142Z,14.90
2018-12-14T12:33:55.506Z,14.40
2018-12-14T12:36:23.908Z,15.20
2018-12-14T12:38:52.238Z,14.27
2018-12-14T12:41:20.716Z,14.80
2018-12-14T12:43:49.072Z,15.80
2018-12-14T12:46:17.438Z,15.47
2018-12-14T12:48:45.843Z,15.47
2018-12-14T12:51:14.237Z,15.53
2018-12-14T12:53:42.581Z,15.73
2018-12-14T12:56:11.135Z,15.13
2018-12-14T12:58:39.427Z,16.27
2018-12-14T13:01:08.001Z,16.20
2018-12-14T13:03:36.333Z,16.43
2018-12-14T13:06:05.132Z,17.23
2018-12-14T13:08:33.699Z,15.97
2018-12-14T13:11:02.164Z,18.40
2018-12-14T13:13:30.689Z,17.70
2018-12-14T13:15:59.048Z,17.00
2018-12-14T13:18:27.790Z,16.53
2018-12-14T13:20:57.032Z,16.80
2018-12-14T13:23:25.378Z,17.23
2018-12-14T13:25:53.704Z,18.40
2018-12-14T13:28:22.331Z,17.73
2018-12-14T13:30:51.028Z,19.03
2018-12-14T13:33:19.573Z,18.90
2018-12-14T13:35:47.950Z,16.53
2018-12-14T13:38:16.342Z,17.63
2018-12-14T13:40:44.938Z,18.77
2018-12-14T13:43:13.316Z,16.60
2018-12-14T13:45:43.728Z,16.33
2018-12-14T13:48:13.219Z,17.67
2018-12-14T13:50:43.756Z,16.63
2018-12-14T13:53:12.103Z,18.67
2018-12-14T13:55:40.435Z,17.50
2018-12-14T13:58:08.749Z,16.23
2018-12-14T14:00:37.124Z,17.07
2018-12-14T14:03:05.467Z,16.27
2018-12-14T14:05:35.441Z,18.03
2018-12-14T14:08:04.813Z,16.83
2018-12-14T14:10:33.916Z,16.80
2018-12-14T14:13:03.671Z,16.77
2018-12-14T14:15:32.418Z,17.60
2018-12-14T14:18:00.764Z,18.37
2018-12-14T14:20:29.082Z,18.00
2018-12-14T14:22:57.375Z,16.43
2018-12-14T14:25:26.486Z,16.93
2018-12-14T14:27:54.805Z,19.97
2018-12-14T14:30:23.197Z,17.53
2018-12-14T14:32:51.592Z,17.93
2018-12-14T14:35:19.977Z,16.77
2018-12-14T14:37:48.365Z,17.43
2018-12-14T14:40:16.679Z,18.00
2018-12-14T14:42:45.040Z,18.87
2018-12-14T14:45:13.370Z,16.67
2018-12-14T14:47:41.740Z,17.03
2018-12-14T14:50:10.843Z,17.60
2018-12-14T14:52:39.220Z,18.27
2018-12-14T14:55:07.668Z,17.70
2018-12-14T14:57:36.439Z,17.00
2018-12-14T15:00:06.549Z,17.13
2018-12-14T15:02:36.943Z,18.20
2018-12-14T15:05:06.340Z,16.30
2018-12-14T15:07:34.697Z,19.03
2018-12-14T15:10:03.280Z,16.77
2018-12-14T15:12:31.672Z,17.67
2018-12-14T15:15:06.453Z,16.10
2018-12-14T15:17:30.322Z,15.73
2018-12-14T15:19:59.601Z,18.43
2018-12-14T15:22:28.648Z,19.30
2018-12-14T15:24:57.035Z,15.87
2018-12-14T15:27:25.365Z,16.33
2018-12-14T15:29:53.911Z,15.70
2018-12-14T15:32:22.547Z,15.63
2018-12-14T15:34:50.991Z,16.77
2018-12-14T15:37:20.177Z,14.40
2018-12-14T15:39:48.575Z,15.90
2018-12-14T15:42:16.925Z,17.03
2018-12-14T15:44:45.325Z,15.87
2018-12-14T15:47:13.693Z,16.90
2018-12-14T15:49:42.072Z,15.00
2018-12-14T15:52:10.426Z,15.37
2018-12-14T15:54:38.807Z,15.00
2018-12-14T15:57:08.081Z,16.47
2018-12-14T15:59:37.302Z,17.40
2018-12-14T16:02:07.156Z,15.70
2018-12-14T16:04:37.031Z,16.20
2018-12-14T16:07:06.313Z,16.17
2018-12-14T16:09:35.743Z,15.77
2018-12-14T16:12:05.666Z,15.50
2018-12-14T16:14:34.914Z,15.03
2018-12-14T16:17:04.176Z,15.20
2018-12-14T16:19:33.942Z,14.50
2018-12-14T16:22:03.150Z,14.90
2018-12-14T16:24:33.384Z,14.90
2018-12-14T16:27:02.550Z,15.80
2018-12-14T16:29:32.759Z,14.90
2018-12-14T16:32:01.945Z,14.00
2018-12-14T16:34:31.657Z,15.17
2018-12-14T16:37:02.759Z,14.70
2018-12-14T16:39:32.133Z,15.60
2018-12-14T16:42:01.782Z,15.27
2018-12-14T16:44:30.143Z,15.97
2018-12-14T16:46:58.510Z,17.13
2018-12-14T16:49:26.928Z,18.33
2018-12-14T16:51:55.335Z,15.43
2018-12-14T16:54:23.674Z,15.77
2018-12-14T16:56:52.054Z,15.90
2018-12-14T16:59:20.532Z,14.73
2018-12-14T17:01:48.882Z,15.73
2018-12-14T17:04:17.256Z,17.23
2018-12-14T17:06:45.636Z,19.23
2018-12-14T17:09:14.327Z,15.50
2018-12-14T17:11:42.710Z,18.53
2018-12-14T17:14:11.062Z,14.80
2018-12-14T17:16:39.453Z,16.33
2018-12-14T17:19:07.910Z,16.37
2018-12-14T17:21:36.302Z,17.07
2018-12-14T17:24:04.831Z,14.67
2018-12-14T17:26:33.341Z,13.80
2018-12-14T17:29:01.736Z,15.10
2018-12-14T17:31:30.178Z,14.97
2018-12-14T17:33:58.819Z,14.50
2018-12-14T17:36:27.331Z,15.93
2018-12-14T17:38:56.775Z,15.70
2018-12-14T17:41:25.134Z,13.73
2018-12-14T17:43:53.860Z,15.27
2018-12-14T17:46:22.310Z,15.47
2018-12-14T17:48:50.870Z,16.27
2018-12-14T17:51:19.554Z,16.37
2018-12-14T17:53:50.449Z,17.00
2018-12-14T17:56:18.832Z,16.27
2018-12-14T17:58:47.334Z,17.07
2018-12-14T18:01:15.741Z,14.23
2018-12-14T18:03:44.102Z,15.20
2018-12-14T18:06:12.477Z,14.73
2018-12-14T18:08:40.849Z,15.70
2018-12-14T18:11:09.218Z,15.77
2018-12-14T18:13:37.651Z,15.90
2018-12-14T18:16:06.067Z,14.77
2018-12-14T18:18:34.470Z,14.57
2018-12-14T18:21:02.799Z,15.77
2018-12-14T18:23:31.268Z,24.20
2018-12-14T18:25:59.593Z,17.93
